createdAt,value
2019-05-23T00:01:43.168Z,3.57
2019-05-23T00:04:25.326Z,4.20
2019-05-23T00:06:54.015Z,4.57
2019-05-23T00:09:23.891Z,4.40
2019-05-23T00:12:13.914Z,3.93
2019-05-23T00:14:47.183Z,3.50
2019-05-23T00:17:16.867Z,3.67
2019-05-23T00:19:46.113Z,5.13
2019-05-23T00:22:14.712Z,3.60
2019-05-23T00:24:43.748Z,4.90
2019-05-23T00:30:22.649Z,3.80
2019-05-23T00:32:52.879Z,4.33
2019-05-23T00:35:21.506Z,4.47
2019-05-23T00:37:51.398Z,3.93
2019-05-23T00:40:20.863Z,3.57
2019-05-23T00:42:50.702Z,2.73
2019-05-23T00:45:21.440Z,3.33
2019-05-23T00:47:51.850Z,4.20
2019-05-23T00:50:21.568Z,4.67
2019-05-23T00:52:51.036Z,4.07
2019-05-23T00:55:20.411Z,3.63
2019-05-23T00:57:49.159Z,4.37
2019-05-23T01:00:21.261Z,4.13
2019-05-23T01:02:49.858Z,4.30
2019-05-23T01:05:18.792Z,5.10
2019-05-23T01:07:48.362Z,4.57
2019-05-23T01:10:18.845Z,3.90
2019-05-23T01:12:48.059Z,4.17
2019-05-23T01:15:16.697Z,5.23
2019-05-23T01:17:46.360Z,4.67
2019-05-23T01:20:21.084Z,4.67
2019-05-23T01:22:50.452Z,4.03
2019-05-23T01:25:21.215Z,4.83
2019-05-23T01:27:51.130Z,4.73
2019-05-23T01:30:21.987Z,3.43
2019-05-23T01:32:54.908Z,4.47
2019-05-23T01:35:24.434Z,3.03
2019-05-23T01:37:53.478Z,3.77
2019-05-23T01:40:22.380Z,3.30
2019-05-23T01:42:51.488Z,3.93
2019-05-23T01:45:20.785Z,3.20
2019-05-23T01:47:50.172Z,4.03
2019-05-23T01:50:22.715Z,3.60
2019-05-23T01:52:52.863Z,4.23
2019-05-23T01:55:21.797Z,2.80
2019-05-23T01:57:51.265Z,3.23
2019-05-23T02:00:21.476Z,4.03
2019-05-23T02:02:50.957Z,3.40
2019-05-23T02:05:19.757Z,3.63
2019-05-23T02:07:48.673Z,3.43
2019-05-23T02:10:17.657Z,3.57
2019-05-23T02:12:47.732Z,4.33
2019-05-23T02:15:16.720Z,3.30
2019-05-23T02:17:46.503Z,3.60
2019-05-23T02:20:18.953Z,3.97
2019-05-23T02:22:48.787Z,4.47
2019-05-23T02:25:21.590Z,2.63
2019-05-23T02:27:50.972Z,4.20
2019-05-23T02:30:34.039Z,4.00
2019-05-23T02:32:52.148Z,3.80
2019-05-23T02:35:21.413Z,3.83
2019-05-23T02:37:51.695Z,4.43
2019-05-23T02:40:22.727Z,3.13
2019-05-23T02:42:53.274Z,3.87
2019-05-23T02:45:30.602Z,3.73
2019-05-23T02:48:00.550Z,4.07
2019-05-23T02:50:31.093Z,3.10
2019-05-23T02:52:59.637Z,4.67
2019-05-23T02:55:35.621Z,3.87
2019-05-23T02:58:08.878Z,4.27
2019-05-23T03:00:54.168Z,4.40
2019-05-23T03:03:19.523Z,3.50
2019-05-23T03:05:50.415Z,4.27
2019-05-23T03:08:20.032Z,4.37
2019-05-23T03:11:08.281Z,3.63
2019-05-23T03:13:38.040Z,3.27
2019-05-23T03:16:07.973Z,3.70
2019-05-23T03:18:40.154Z,5.27
2019-05-23T03:21:09.173Z,4.63
2019-05-23T03:23:37.781Z,3.53
2019-05-23T03:26:28.671Z,2.40
2019-05-23T03:28:57.297Z,3.23
2019-05-23T03:31:32.116Z,2.13
2019-05-23T03:33:58.866Z,2.50
2019-05-23T03:36:28.567Z,3.77
2019-05-23T03:38:58.049Z,2.60
2019-05-23T03:41:28.342Z,3.40
2019-05-23T03:43:56.974Z,2.87
2019-05-23T03:46:27.449Z,3.43
2019-05-23T03:48:56.312Z,3.17
2019-05-23T03:51:25.149Z,5.17
2019-05-23T03:53:54.630Z,4.00
2019-05-23T03:56:25.049Z,3.63
2019-05-23T03:58:56.074Z,3.43
2019-05-23T04:01:45.519Z,3.47
2019-05-23T04:03:58.669Z,3.53
2019-05-23T04:06:28.354Z,3.23
2019-05-23T04:08:57.225Z,3.07
2019-05-23T04:11:25.995Z,3.13
2019-05-23T04:13:54.593Z,3.63
2019-05-23T04:16:23.321Z,3.27
2019-05-23T04:18:51.926Z,3.03
2019-05-23T04:21:24.529Z,2.23
2019-05-23T04:23:53.079Z,3.90
2019-05-23T04:26:22.752Z,2.37
2019-05-23T04:28:52.136Z,2.57
2019-05-23T04:31:20.574Z,3.37
2019-05-23T04:33:49.096Z,3.87
2019-05-23T04:36:17.992Z,3.90
2019-05-23T04:38:47.067Z,2.80
2019-05-23T04:41:15.716Z,2.80
2019-05-23T04:43:44.337Z,2.80
2019-05-23T04:46:13.405Z,2.33
2019-05-23T04:48:41.702Z,3.43
2019-05-23T04:51:10.854Z,3.70
2019-05-23T04:53:39.608Z,3.97
2019-05-23T04:56:08.417Z,3.20
2019-05-23T04:58:38.423Z,3.67
2019-05-23T05:01:07.267Z,1.90
2019-05-23T05:03:35.893Z,2.50
2019-05-23T05:06:04.501Z,2.70
2019-05-23T05:08:33.600Z,3.00
2019-05-23T05:11:01.914Z,4.47
2019-05-23T05:13:30.816Z,2.93
2019-05-23T05:15:59.343Z,3.63
2019-05-23T05:18:29.294Z,2.63
2019-05-23T05:20:58.197Z,2.07
2019-05-23T05:23:26.470Z,3.47
2019-05-23T05:25:55.008Z,3.37
2019-05-23T05:28:23.674Z,2.63
2019-05-23T05:30:52.745Z,3.10
2019-05-23T05:33:21.444Z,3.27
2019-05-23T05:35:50.162Z,3.47
2019-05-23T05:38:19.698Z,3.53
2019-05-23T05:40:48.220Z,2.80
2019-05-23T05:43:17.230Z,3.30
2019-05-23T05:45:45.927Z,3.70
2019-05-23T05:48:14.811Z,3.23
2019-05-23T05:50:43.222Z,2.30
2019-05-23T05:53:12.584Z,2.30
2019-05-23T05:55:40.834Z,3.47
2019-05-23T05:58:09.423Z,1.70
2019-05-23T06:00:39.867Z,2.83
2019-05-23T06:03:08.592Z,2.90
2019-05-23T06:05:55.319Z,3.50
2019-05-23T06:08:25.598Z,4.20
2019-05-23T06:10:54.136Z,4.53
2019-05-23T06:13:23.171Z,3.23
2019-05-23T06:15:53.103Z,3.20
2019-05-23T06:18:21.801Z,3.83
2019-05-23T06:20:50.419Z,2.87
2019-05-23T06:23:20.139Z,3.53
2019-05-23T06:25:48.735Z,3.10
2019-05-23T06:28:18.921Z,3.77
2019-05-23T06:30:48.488Z,3.13
2019-05-23T06:33:23.187Z,2.80
2019-05-23T06:35:48.283Z,3.97
2019-05-23T06:38:17.456Z,3.40
2019-05-23T06:40:46.729Z,3.67
2019-05-23T06:43:15.405Z,2.90
2019-05-23T06:45:44.837Z,4.30
2019-05-23T06:48:15.345Z,4.27
2019-05-23T06:50:44.220Z,4.10
2019-05-23T06:53:12.845Z,3.50
2019-05-23T06:55:41.399Z,5.23
2019-05-23T06:58:10.006Z,3.30
2019-05-23T07:00:38.524Z,4.87
2019-05-23T07:03:07.383Z,4.17
2019-05-23T07:05:37.792Z,4.03
2019-05-23T07:08:07.333Z,3.77
2019-05-23T07:10:36.624Z,4.93
2019-05-23T07:13:05.377Z,3.87
2019-05-23T07:15:34.072Z,5.10
2019-05-23T07:18:02.856Z,4.40
2019-05-23T07:20:31.705Z,3.90
2019-05-23T07:23:00.279Z,3.63
2019-05-23T07:25:28.675Z,3.03
2019-05-23T07:27:57.862Z,3.93
2019-05-23T07:30:27.815Z,4.53
2019-05-23T07:32:57.144Z,2.70
2019-05-23T07:35:26.394Z,3.57
2019-05-23T07:37:55.025Z,5.07
2019-05-23T07:40:26.316Z,3.03
2019-05-23T07:42:55.374Z,3.63
2019-05-23T07:45:28.525Z,2.93
2019-05-23T07:47:57.576Z,3.67
2019-05-23T07:50:26.135Z,2.87
2019-05-23T07:52:56.714Z,4.00
2019-05-23T07:55:29.878Z,4.30
2019-05-23T07:57:58.555Z,4.13
2019-05-23T08:00:34.717Z,3.97
2019-05-23T08:03:05.361Z,2.10
2019-05-23T08:05:34.422Z,4.20
2019-05-23T08:08:04.327Z,2.87
2019-05-23T08:10:34.425Z,2.53
2019-05-23T08:13:03.335Z,2.27
2019-05-23T08:15:32.873Z,3.07
2019-05-23T08:18:01.955Z,1.87
2019-05-23T08:20:30.847Z,2.27
2019-05-23T08:22:59.462Z,2.00
2019-05-23T08:25:28.095Z,2.20
2019-05-23T08:27:56.697Z,2.83
2019-05-23T08:30:25.609Z,3.37
2019-05-23T08:32:54.650Z,5.30
2019-05-23T08:35:23.207Z,4.97
2019-05-23T08:37:52.190Z,4.60
2019-05-23T08:40:22.500Z,4.47
2019-05-23T08:42:51.667Z,5.30
2019-05-23T08:45:21.328Z,5.60
2019-05-23T08:47:50.543Z,5.63
2019-05-23T08:50:19.331Z,4.93
2019-05-23T08:52:47.844Z,5.27
2019-05-23T08:55:26.637Z,5.33
2019-05-23T08:57:55.375Z,9.03
2019-05-23T09:00:29.609Z,5.37
2019-05-23T09:02:59.343Z,5.23
2019-05-23T09:05:33.025Z,4.97
2019-05-23T09:08:01.997Z,5.03
2019-05-23T09:10:31.129Z,5.00
2019-05-23T09:13:00.007Z,5.00
2019-05-23T09:15:28.654Z,4.90
2019-05-23T09:17:57.751Z,4.13
2019-05-23T09:20:26.573Z,4.90
2019-05-23T09:22:55.250Z,4.80
2019-05-23T09:25:23.885Z,4.83
2019-05-23T09:27:53.538Z,4.43
2019-05-23T09:30:23.009Z,4.63
2019-05-23T09:32:51.957Z,4.00
2019-05-23T09:35:22.297Z,4.40
2019-05-23T09:37:51.178Z,4.30
2019-05-23T09:40:19.621Z,4.60
2019-05-23T09:42:48.152Z,4.10
2019-05-23T09:45:18.051Z,4.07
2019-05-23T09:47:51.002Z,4.23
2019-05-23T09:50:19.666Z,4.20
2019-05-23T09:52:48.257Z,4.37
2019-05-23T09:55:17.495Z,4.30
2019-05-23T09:57:46.082Z,4.37
2019-05-23T10:00:19.914Z,3.90
2019-05-23T10:02:48.523Z,4.20
2019-05-23T10:05:17.578Z,4.10
2019-05-23T10:07:46.093Z,4.10
2019-05-23T10:10:15.671Z,4.30
2019-05-23T10:12:44.339Z,4.00
2019-05-23T10:15:20.703Z,4.10
2019-05-23T10:17:49.350Z,3.57
2019-05-23T10:20:18.744Z,3.97
2019-05-23T10:22:48.085Z,3.50
2019-05-23T10:25:16.779Z,3.70
2019-05-23T10:27:45.357Z,3.63
2019-05-23T10:30:15.750Z,3.63
2019-05-23T10:32:44.422Z,3.70
2019-05-23T10:35:14.494Z,3.63
2019-05-23T10:37:43.138Z,3.87
2019-05-23T10:40:11.937Z,3.93
2019-05-23T10:42:40.216Z,3.87
2019-05-23T10:45:09.571Z,4.10
2019-05-23T10:47:38.221Z,4.10
2019-05-23T10:50:10.161Z,4.07
2019-05-23T10:52:39.286Z,4.10
2019-05-23T10:55:08.383Z,3.87
2019-05-23T10:57:37.061Z,3.57
2019-05-23T11:00:09.699Z,3.63
2019-05-23T11:02:39.183Z,3.90
2019-05-23T11:05:13.148Z,3.80
2019-05-23T11:07:39.606Z,3.40
2019-05-23T11:10:09.042Z,3.23
2019-05-23T11:12:37.604Z,3.17
2019-05-23T11:15:07.294Z,3.53
2019-05-23T11:17:36.333Z,3.67
2019-05-23T11:20:06.994Z,3.13
2019-05-23T11:22:35.554Z,3.37
2019-05-23T11:25:06.882Z,3.33
2019-05-23T11:27:35.690Z,3.20
2019-05-23T11:30:06.906Z,3.40
2019-05-23T11:32:35.905Z,3.63
2019-05-23T11:35:05.189Z,2.90
2019-05-23T11:37:33.787Z,3.10
2019-05-23T11:40:02.436Z,3.07
2019-05-23T11:42:30.770Z,2.80
2019-05-23T11:44:59.348Z,3.20
2019-05-23T11:47:31.649Z,2.90
2019-05-23T11:49:58.592Z,2.80
2019-05-23T11:52:27.691Z,2.93
2019-05-23T11:54:56.677Z,2.93
2019-05-23T11:57:25.408Z,2.60
2019-05-23T11:59:54.212Z,2.70
2019-05-23T12:02:33.017Z,2.97
2019-05-23T12:05:03.237Z,2.70
2019-05-23T12:07:31.603Z,3.03
2019-05-23T12:10:00.206Z,2.57
2019-05-23T12:12:28.978Z,3.20
2019-05-23T12:14:57.783Z,2.67
2019-05-23T12:17:28.585Z,2.70
2019-05-23T12:19:57.134Z,3.00
2019-05-23T12:22:26.605Z,2.60
2019-05-23T12:24:55.249Z,2.50
2019-05-23T12:27:24.010Z,2.73
2019-05-23T12:29:52.551Z,2.27
2019-05-23T12:32:21.453Z,2.27
2019-05-23T12:35:08.442Z,2.90
2019-05-23T12:37:20.926Z,2.90
2019-05-23T12:39:49.922Z,2.53
2019-05-23T12:42:18.544Z,2.70
2019-05-23T12:44:47.089Z,2.37
2019-05-23T12:47:17.289Z,2.37
2019-05-23T12:49:47.643Z,2.63
2019-05-23T12:52:16.273Z,3.10
2019-05-23T12:54:44.822Z,2.73
2019-05-23T12:57:14.729Z,2.70
2019-05-23T12:59:43.378Z,2.50
2019-05-23T13:02:13.958Z,2.70
2019-05-23T13:04:42.408Z,2.70
2019-05-23T13:07:11.513Z,2.50
2019-05-23T13:09:40.199Z,2.50
2019-05-23T13:12:09.122Z,2.57
2019-05-23T13:14:37.739Z,2.57
2019-05-23T13:17:06.631Z,2.10
2019-05-23T13:19:35.537Z,2.20
2019-05-23T13:22:04.521Z,2.47
2019-05-23T13:24:50.703Z,2.23
2019-05-23T13:27:02.741Z,2.27
2019-05-23T13:29:31.654Z,2.63
2019-05-23T13:32:00.332Z,2.67
2019-05-23T13:34:28.896Z,2.30
2019-05-23T13:36:57.748Z,2.37
2019-05-23T13:39:26.816Z,2.17
2019-05-23T13:41:55.692Z,2.53
2019-05-23T13:44:34.571Z,2.30
2019-05-23T13:46:54.750Z,2.47
2019-05-23T13:49:23.635Z,2.80
2019-05-23T13:51:52.913Z,2.27
2019-05-23T13:54:22.098Z,2.63
2019-05-23T13:56:51.526Z,2.30
2019-05-23T13:59:20.504Z,3.10
2019-05-23T14:01:49.303Z,2.40
2019-05-23T14:04:17.772Z,2.17
2019-05-23T14:06:46.386Z,2.93
2019-05-23T14:09:16.451Z,2.27
2019-05-23T14:11:45.065Z,2.50
2019-05-23T14:14:13.400Z,2.10
2019-05-23T14:16:44.111Z,2.07
2019-05-23T14:19:13.223Z,2.27
2019-05-23T14:21:41.893Z,2.17
2019-05-23T14:24:10.529Z,2.40
2019-05-23T14:26:52.787Z,2.17
2019-05-23T14:29:21.414Z,1.80
2019-05-23T14:31:54.591Z,2.10
2019-05-23T14:34:23.288Z,2.57
2019-05-23T14:36:53.545Z,2.30
2019-05-23T14:39:26.263Z,2.23
2019-05-23T14:41:59.404Z,2.23
2019-05-23T14:44:28.148Z,2.10
2019-05-23T14:46:58.410Z,2.37
2019-05-23T14:49:43.946Z,2.40
2019-05-23T14:52:14.134Z,2.27
2019-05-23T14:54:44.119Z,2.40
2019-05-23T14:57:12.988Z,2.67
2019-05-23T14:59:42.466Z,2.17
2019-05-23T15:02:13.111Z,2.30
2019-05-23T15:04:41.741Z,2.20
2019-05-23T15:07:10.417Z,2.23
2019-05-23T15:09:38.981Z,2.67
2019-05-23T15:12:07.869Z,2.20
2019-05-23T15:14:36.542Z,2.10
2019-05-23T15:17:05.425Z,2.50
2019-05-23T15:19:44.081Z,2.40
2019-05-23T15:22:03.908Z,2.20
2019-05-23T15:24:32.949Z,2.70
2019-05-23T15:27:01.592Z,2.10
2019-05-23T15:29:30.253Z,2.00
2019-05-23T15:32:02.224Z,2.50
2019-05-23T15:34:29.071Z,2.57
2019-05-23T15:36:57.604Z,2.47
2019-05-23T15:39:27.085Z,2.40
2019-05-23T15:41:55.649Z,2.27
2019-05-23T15:44:28.672Z,2.17
2019-05-23T15:46:54.080Z,2.27
2019-05-23T15:49:23.259Z,2.60
2019-05-23T15:51:56.289Z,2.40
2019-05-23T15:54:26.556Z,2.50
2019-05-23T15:56:56.769Z,2.30
2019-05-23T15:59:32.684Z,2.50
2019-05-23T16:02:15.133Z,2.37
2019-05-23T16:04:43.814Z,2.50
2019-05-23T16:07:13.414Z,2.60
2019-05-23T16:09:41.955Z,2.53
2019-05-23T16:12:11.935Z,2.33
2019-05-23T16:14:40.596Z,2.33
2019-05-23T16:17:09.689Z,2.10
2019-05-23T16:19:38.334Z,2.37
2019-05-23T16:22:07.709Z,2.37
2019-05-23T16:24:36.314Z,2.47
2019-05-23T16:27:06.116Z,2.50
2019-05-23T16:29:36.164Z,2.50
2019-05-23T16:32:04.771Z,2.50
2019-05-23T16:34:34.350Z,2.47
2019-05-23T16:37:02.989Z,2.40
2019-05-23T16:39:46.085Z,2.47
2019-05-23T16:42:02.634Z,2.20
2019-05-23T16:44:31.335Z,2.47
2019-05-23T16:47:00.108Z,2.60
2019-05-23T16:49:28.670Z,2.20
2019-05-23T16:51:57.295Z,2.40
2019-05-23T16:54:27.471Z,2.50
2019-05-23T16:57:00.625Z,2.27
2019-05-23T16:59:36.626Z,2.50
2019-05-23T17:02:23.726Z,2.10
2019-05-23T17:05:08.419Z,2.23
2019-05-23T17:07:25.878Z,2.53
2019-05-23T17:10:07.515Z,2.47
2019-05-23T17:12:44.689Z,2.40
2019-05-23T17:15:18.660Z,2.43
2019-05-23T17:18:03.251Z,2.37
2019-05-23T17:20:49.053Z,2.40
2019-05-23T17:23:22.331Z,2.10
2019-05-23T17:25:52.783Z,1.90
2019-05-23T17:28:26.288Z,2.10
2019-05-23T17:30:56.194Z,2.47
2019-05-23T17:33:26.003Z,2.60
2019-05-23T17:35:54.613Z,2.67
2019-05-23T17:38:24.170Z,2.00
2019-05-23T17:40:52.730Z,2.50
2019-05-23T17:43:21.863Z,2.00
2019-05-23T17:45:50.969Z,2.30
2019-05-23T17:48:19.910Z,2.13
2019-05-23T17:50:48.528Z,2.10
2019-05-23T17:53:17.414Z,2.00
2019-05-23T17:55:46.650Z,2.10
2019-05-23T17:58:17.421Z,2.30
2019-05-23T18:00:47.591Z,2.17
2019-05-23T18:03:16.596Z,2.47
2019-05-23T18:05:45.280Z,2.20
2019-05-23T18:08:15.076Z,2.50
2019-05-23T18:10:45.946Z,2.50
2019-05-23T18:13:15.344Z,1.90
2019-05-23T18:15:44.323Z,2.00
2019-05-23T18:18:13.520Z,2.23
2019-05-23T18:20:43.045Z,2.20
2019-05-23T18:23:11.736Z,2.20
2019-05-23T18:25:41.321Z,2.13
2019-05-23T18:28:12.195Z,2.40
2019-05-23T18:30:54.280Z,2.60
2019-05-23T18:33:24.251Z,2.50
2019-05-23T18:35:53.428Z,2.40
2019-05-23T18:38:22.688Z,2.10
2019-05-23T18:41:02.267Z,2.10
2019-05-23T18:43:23.533Z,2.33
2019-05-23T18:45:53.785Z,2.50
2019-05-23T18:48:22.352Z,2.43
2019-05-23T18:50:51.228Z,2.07
2019-05-23T18:53:19.863Z,2.27
2019-05-23T18:55:48.472Z,2.10
2019-05-23T18:58:19.510Z,2.47
2019-05-23T19:00:57.835Z,2.10
2019-05-23T19:03:27.200Z,2.67
2019-05-23T19:05:56.104Z,2.60
2019-05-23T19:08:24.739Z,2.60
2019-05-23T19:10:53.520Z,2.80
2019-05-23T19:13:22.210Z,2.47
2019-05-23T19:15:51.077Z,2.73
2019-05-23T19:18:19.789Z,2.40
2019-05-23T19:20:54.354Z,2.90
2019-05-23T19:23:19.708Z,2.50
2019-05-23T19:25:49.974Z,2.60
2019-05-23T19:28:19.321Z,3.07
2019-05-23T19:30:48.307Z,2.70
2019-05-23T19:33:16.974Z,2.50
2019-05-23T19:35:47.499Z,3.03
2019-05-23T19:38:16.225Z,2.50
2019-05-23T19:40:45.418Z,2.90
2019-05-23T19:43:15.843Z,2.67
2019-05-23T19:45:44.420Z,2.87
2019-05-23T19:48:13.522Z,3.37
2019-05-23T19:50:43.827Z,3.00
2019-05-23T19:53:12.390Z,3.10
2019-05-23T19:55:40.967Z,2.87
2019-05-23T19:58:10.676Z,3.70
2019-05-23T20:00:40.895Z,3.40
2019-05-23T20:03:09.630Z,2.90
2019-05-23T20:05:42.842Z,3.53
2019-05-23T20:08:11.606Z,3.10
2019-05-23T20:10:40.616Z,3.00
2019-05-23T20:13:09.331Z,4.53
2019-05-23T20:15:38.008Z,14.30
2019-05-23T20:18:06.818Z,16.07
2019-05-23T20:20:36.752Z,15.03
2019-05-23T20:23:05.315Z,12.40
2019-05-23T20:25:34.383Z,7.37
2019-05-23T20:28:03.018Z,4.27
2019-05-23T20:30:47.715Z,3.60
2019-05-23T20:33:16.370Z,3.23
2019-05-23T20:35:45.104Z,3.43
2019-05-23T20:38:14.049Z,3.50
2019-05-23T20:40:42.648Z,3.40
2019-05-23T20:43:11.461Z,3.67
2019-05-23T20:45:40.735Z,3.70
2019-05-23T20:48:09.619Z,3.50
2019-05-23T20:50:37.959Z,3.93
2019-05-23T20:53:06.595Z,3.70
2019-05-23T20:55:36.138Z,3.53
2019-05-23T20:58:05.806Z,3.87
2019-05-23T21:00:36.116Z,3.50
2019-05-23T21:03:06.455Z,3.93
2019-05-23T21:05:35.161Z,3.70
2019-05-23T21:08:03.834Z,4.17
2019-05-23T21:10:44.105Z,3.60
2019-05-23T21:13:12.714Z,3.53
2019-05-23T21:15:41.310Z,3.70
2019-05-23T21:18:09.888Z,4.13
2019-05-23T21:20:38.141Z,4.20
2019-05-23T21:23:06.679Z,3.57
2019-05-23T21:25:37.355Z,3.67
2019-05-23T21:28:06.533Z,3.73
2019-05-23T21:30:34.771Z,4.43
2019-05-23T21:33:03.786Z,4.20
2019-05-23T21:35:32.410Z,4.37
2019-05-23T21:38:01.050Z,4.47
2019-05-23T21:40:35.476Z,5.13
2019-05-23T21:43:04.962Z,4.10
2019-05-23T21:45:33.836Z,4.77
2019-05-23T21:48:02.466Z,4.20
2019-05-23T21:50:31.167Z,4.37
2019-05-23T21:52:59.735Z,3.80
2019-05-23T21:55:41.530Z,4.20
2019-05-23T21:58:12.342Z,4.30
2019-05-23T22:01:06.866Z,4.30
2019-05-23T22:03:38.077Z,4.10
2019-05-23T22:06:09.780Z,4.17
2019-05-23T22:08:38.051Z,4.87
2019-05-23T22:11:07.456Z,4.43
2019-05-23T22:13:35.986Z,4.30
2019-05-23T22:16:04.691Z,4.60
2019-05-23T22:18:33.304Z,4.50
2019-05-23T22:21:01.902Z,4.97
2019-05-23T22:23:30.486Z,4.90
2019-05-23T22:25:59.207Z,4.47
2019-05-23T22:28:27.743Z,4.37
2019-05-23T22:30:56.681Z,4.37
2019-05-23T22:33:27.126Z,4.80
2019-05-23T22:35:56.127Z,4.27
2019-05-23T22:38:24.662Z,4.07
2019-05-23T22:40:53.224Z,4.37
2019-05-23T22:43:21.828Z,4.43
2019-05-23T22:45:50.455Z,4.37
2019-05-23T22:48:18.667Z,4.27
2019-05-23T22:50:47.232Z,4.03
2019-05-23T22:53:15.771Z,4.57
2019-05-23T22:55:44.336Z,4.43
2019-05-23T22:58:12.947Z,4.67
2019-05-23T23:00:43.147Z,4.87
2019-05-23T23:03:11.753Z,4.87
2019-05-23T23:05:40.311Z,5.13
2019-05-23T23:08:08.529Z,4.53
2019-05-23T23:10:37.154Z,4.50
2019-05-23T23:13:05.838Z,4.60
2019-05-23T23:15:34.641Z,4.00
2019-05-23T23:18:03.243Z,4.53
2019-05-23T23:20:32.248Z,4.60
2019-05-23T23:23:00.872Z,5.00
2019-05-23T23:25:29.423Z,4.67
2019-05-23T23:27:57.958Z,4.83
2019-05-23T23:30:28.152Z,5.47
2019-05-23T23:32:56.688Z,5.33
2019-05-23T23:35:25.380Z,5.60
2019-05-23T23:37:54.003Z,5.43
2019-05-23T23:40:22.603Z,5.00
2019-05-23T23:42:51.163Z,5.10
2019-05-23T23:45:37.200Z,4.47
2019-05-23T23:48:23.751Z,4.30
2019-05-23T23:51:10.601Z,4.87
2019-05-23T23:53:56.651Z,4.23
2019-05-23T23:56:43.469Z,4.30
2019-05-23T23:59:11.434Z,4.67
